createdAt,value
2023-04-03T00:00:08.118Z,99744.16
2023-04-03T00:02:35.398Z,99739.91
2023-04-03T00:05:02.572Z,99719.66
2023-04-03T00:07:29.614Z,99718.81
2023-04-03T00:09:56.756Z,99728.94
2023-04-03T00:12:23.833Z,99709.19
2023-04-03T00:14:50.918Z,99709.28
2023-04-03T00:17:17.984Z,99719.78
2023-04-03T00:19:45.071Z,99707.84
2023-04-03T00:22:12.167Z,99696.63
2023-04-03T00:24:39.330Z,99710.59
2023-04-03T00:27:06.391Z,99713.28
2023-04-03T00:29:33.446Z,99712.50
2023-04-03T00:32:00.515Z,99695.19
2023-04-03T00:34:27.609Z,99689.88
2023-04-03T00:36:54.936Z,99699.00
2023-04-03T00:39:22.116Z,99685.66
2023-04-03T00:41:49.340Z,99686.03
2023-04-03T00:44:23.321Z,99678.94
2023-04-03T00:46:50.441Z,99671.00
2023-04-03T00:49:17.550Z,99664.47
2023-04-03T00:51:44.629Z,99662.78
2023-04-03T00:54:12.284Z,99660.50
2023-04-03T00:56:39.764Z,99666.19
2023-04-03T00:59:09.509Z,99661.47
2023-04-03T01:01:37.507Z,99657.50
2023-04-03T01:04:06.895Z,99647.47
2023-04-03T01:06:36.263Z,99645.47
2023-04-03T01:09:07.612Z,99637.63
2023-04-03T01:11:34.710Z,99641.22
2023-04-03T01:14:02.998Z,99632.06
2023-04-03T01:16:32.811Z,99627.97
2023-04-03T01:19:01.504Z,99638.22
2023-04-03T01:21:49.145Z,99638.56
2023-04-03T01:24:23.745Z,99620.63
2023-04-03T01:26:51.426Z,99621.22
2023-04-03T01:29:18.910Z,99627.34
2023-04-03T01:31:53.471Z,99617.97
2023-04-03T01:34:21.131Z,99613.25
2023-04-03T01:36:48.568Z,99614.91
2023-04-03T01:39:15.624Z,99623.59
2023-04-03T01:41:43.083Z,99615.06
2023-04-03T01:44:22.946Z,99609.13
2023-04-03T01:46:50.097Z,99622.13
2023-04-03T01:49:17.465Z,99624.88
2023-04-03T01:51:45.437Z,99625.75
2023-04-03T01:54:12.670Z,99621.88
2023-04-03T01:56:40.090Z,99618.53
2023-04-03T01:59:07.378Z,99632.53
2023-04-03T02:01:34.749Z,99619.25
2023-04-03T02:04:01.906Z,99621.78
2023-04-03T02:06:29.041Z,99617.44
2023-04-03T02:08:56.587Z,99613.97
2023-04-03T02:11:23.686Z,99611.03
2023-04-03T02:13:50.790Z,99610.81
2023-04-03T02:16:17.910Z,99614.09
2023-04-03T02:18:44.995Z,99609.97
2023-04-03T02:21:12.212Z,99609.88
2023-04-03T02:23:39.604Z,99612.41
2023-04-03T02:26:07.090Z,99607.13
2023-04-03T02:28:34.375Z,99603.34
2023-04-03T02:31:01.683Z,99605.75
2023-04-03T02:33:29.735Z,99613.25
2023-04-03T02:35:57.539Z,99614.19
2023-04-03T02:38:25.479Z,99608.38
2023-04-03T02:40:53.247Z,99606.72
2023-04-03T02:43:20.295Z,99611.56
2023-04-03T02:45:47.528Z,99611.03
2023-04-03T02:48:15.789Z,99613.19
2023-04-03T02:50:42.879Z,99614.78
2023-04-03T02:53:09.973Z,99630.78
2023-04-03T02:55:37.211Z,99619.59
2023-04-03T02:58:04.607Z,99617.81
2023-04-03T03:00:32.122Z,99636.63
2023-04-03T03:02:59.303Z,99620.94
2023-04-03T03:05:26.682Z,99625.06
2023-04-03T03:07:53.922Z,99618.53
2023-04-03T03:10:21.207Z,99624.22
2023-04-03T03:12:48.472Z,99629.16
2023-04-03T03:15:16.612Z,99611.88
2023-04-03T03:17:44.011Z,99638.31
2023-04-03T03:20:11.524Z,99640.84
2023-04-03T03:22:38.589Z,99640.75
2023-04-03T03:25:06.059Z,99632.84
2023-04-03T03:27:33.141Z,99623.69
2023-04-03T03:30:00.347Z,99633.38
2023-04-03T03:32:27.484Z,99613.19
2023-04-03T03:34:54.538Z,99599.69
2023-04-03T03:37:21.605Z,99603.41
2023-04-03T03:39:48.770Z,99602.44
2023-04-03T03:42:16.577Z,99608.91
2023-04-03T03:44:44.116Z,99607.63
2023-04-03T03:47:12.050Z,99610.03
2023-04-03T03:49:39.560Z,99604.09
2023-04-03T03:52:06.648Z,99613.38
2023-04-03T03:54:33.731Z,99617.81
2023-04-03T03:57:01.379Z,99614.94
2023-04-03T03:59:30.982Z,99620.56
2023-04-03T04:01:58.310Z,99614.66
2023-04-03T04:04:25.523Z,99616.34
2023-04-03T04:06:52.825Z,99615.63
2023-04-03T04:09:20.664Z,99609.47
2023-04-03T04:11:47.829Z,99610.78
2023-04-03T04:14:17.354Z,99609.84
2023-04-03T04:16:44.831Z,99609.00
2023-04-03T04:19:16.847Z,99611.53
2023-04-03T04:21:45.288Z,99614.47
2023-04-03T04:24:12.498Z,99629.59
2023-04-03T04:26:40.333Z,99637.91
2023-04-03T04:29:11.095Z,99634.97
2023-04-03T04:31:38.398Z,99632.69
2023-04-03T04:34:05.962Z,99635.44
2023-04-03T04:36:33.116Z,99639.53
2023-04-03T04:39:00.615Z,99632.25
2023-04-03T04:41:28.460Z,99652.75
2023-04-03T04:43:55.716Z,99651.28
2023-04-03T04:46:23.433Z,99657.19
2023-04-03T04:48:55.389Z,99644.00
2023-04-03T04:51:23.507Z,99646.75
2023-04-03T04:53:50.620Z,99655.00
2023-04-03T04:56:19.923Z,99663.88
2023-04-03T04:58:47.733Z,99672.88
2023-04-03T05:01:16.941Z,99669.41
2023-04-03T05:03:52.686Z,99660.81
2023-04-03T05:06:20.703Z,99664.53
2023-04-03T05:08:47.958Z,99675.75
2023-04-03T05:11:15.080Z,99683.22
2023-04-03T05:13:43.919Z,99698.97
2023-04-03T05:16:12.405Z,99689.81
2023-04-03T05:18:39.712Z,99689.59
2023-04-03T05:21:10.469Z,99705.13
2023-04-03T05:23:37.622Z,99706.16
2023-04-03T05:26:05.348Z,99719.25
2023-04-03T05:28:32.936Z,99718.53
2023-04-03T05:31:00.650Z,99729.72
2023-04-03T05:33:33.592Z,99738.16
2023-04-03T05:36:05.227Z,99732.88
2023-04-03T05:38:35.137Z,99740.28
2023-04-03T05:41:02.393Z,99746.09
2023-04-03T05:43:29.614Z,99751.69
2023-04-03T05:45:57.236Z,99770.72
2023-04-03T05:48:26.870Z,99764.91
2023-04-03T05:50:56.944Z,99764.59
2023-04-03T05:53:28.052Z,99783.41
2023-04-03T05:55:56.837Z,99777.47
2023-04-03T05:58:24.734Z,99798.41
2023-04-03T06:00:53.695Z,99802.34
2023-04-03T06:03:21.087Z,99801.88
2023-04-03T06:05:50.310Z,99815.41
2023-04-03T06:08:17.370Z,99819.50
2023-04-03T06:10:44.470Z,99816.66
2023-04-03T06:13:13.012Z,99820.75
2023-04-03T06:15:41.359Z,99824.34
2023-04-03T06:18:09.909Z,99829.94
2023-04-03T06:20:37.358Z,99828.88
2023-04-03T06:23:05.146Z,99842.06
2023-04-03T06:25:32.895Z,99847.16
2023-04-03T06:27:59.945Z,99842.19
2023-04-03T06:30:27.352Z,99853.06
2023-04-03T06:32:54.452Z,99845.22
2023-04-03T06:35:21.985Z,99855.59
2023-04-03T06:37:49.055Z,99844.78
2023-04-03T06:40:19.674Z,99850.38
2023-04-03T06:42:47.153Z,99839.63
2023-04-03T06:45:14.355Z,99857.41
2023-04-03T06:47:41.785Z,99863.19
2023-04-03T06:50:12.362Z,99874.19
2023-04-03T06:52:41.076Z,99875.69
2023-04-03T06:55:09.253Z,99875.09
2023-04-03T06:57:36.864Z,99885.44
2023-04-03T07:00:05.330Z,99867.31
2023-04-03T07:02:32.674Z,99876.72
2023-04-03T07:04:59.885Z,99872.28
2023-04-03T07:07:26.976Z,99867.09
2023-04-03T07:09:54.421Z,99870.97
2023-04-03T07:12:21.717Z,99881.47
2023-04-03T07:14:48.787Z,99877.09
2023-04-03T07:17:16.066Z,99871.53
2023-04-03T07:19:43.161Z,99864.31
2023-04-03T07:22:11.996Z,99871.22
2023-04-03T07:24:39.073Z,99869.91
2023-04-03T07:27:06.527Z,99876.53
2023-04-03T07:29:33.571Z,99871.25
2023-04-03T07:32:00.950Z,99874.66
2023-04-03T07:34:28.085Z,99872.25
2023-04-03T07:36:55.801Z,99878.78
2023-04-03T07:39:22.924Z,99880.69
2023-04-03T07:41:49.985Z,99879.38
2023-04-03T07:44:18.177Z,99881.19
2023-04-03T07:46:45.271Z,99894.97
2023-04-03T07:49:12.340Z,99886.06
2023-04-03T07:51:39.440Z,99883.03
2023-04-03T07:54:06.554Z,99889.72
2023-04-03T07:56:34.461Z,99863.84
2023-04-03T07:59:01.638Z,99863.63
2023-04-03T08:01:28.776Z,99879.56
2023-04-03T08:03:55.933Z,99881.97
2023-04-03T08:06:33.051Z,99869.69
2023-04-03T08:09:05.153Z,99846.53
2023-04-03T08:11:32.385Z,99866.78
2023-04-03T08:13:59.446Z,99851.00
2023-04-03T08:16:27.979Z,99850.88
2023-04-03T08:18:55.940Z,99818.09
2023-04-03T08:21:23.086Z,99811.44
2023-04-03T08:23:51.718Z,99816.88
2023-04-03T08:26:21.725Z,99818.69
2023-04-03T08:28:49.128Z,99805.78
2023-04-03T08:31:18.154Z,99807.00
2023-04-03T08:33:45.824Z,99789.97
2023-04-03T08:36:21.132Z,99782.84
2023-04-03T08:38:48.429Z,99751.78
2023-04-03T08:41:17.188Z,99745.97
2023-04-03T08:43:44.216Z,99747.91
2023-04-03T08:46:14.676Z,99722.44
2023-04-03T08:48:44.816Z,99711.72
2023-04-03T08:51:16.317Z,99710.03
2023-04-03T08:53:47.362Z,99707.16
2023-04-03T08:56:15.921Z,99683.16
2023-04-03T08:58:51.560Z,99678.38
2023-04-03T09:01:21.157Z,99674.38
2023-04-03T09:03:48.339Z,99677.03
2023-04-03T09:06:23.509Z,99666.44
2023-04-03T09:08:56.674Z,99661.22
2023-04-03T09:11:29.325Z,99661.44
2023-04-03T09:14:15.263Z,99669.00
2023-04-03T09:16:59.198Z,99638.47
2023-04-03T09:19:32.243Z,99610.84
2023-04-03T09:22:02.662Z,99598.81
2023-04-03T09:24:32.425Z,99592.28
2023-04-03T09:27:03.451Z,99580.47
2023-04-03T09:29:30.904Z,99557.91
2023-04-03T09:32:00.723Z,99551.97
2023-04-03T09:34:31.545Z,99553.28
2023-04-03T09:36:59.793Z,99576.13
2023-04-03T09:39:28.530Z,99528.78
2023-04-03T09:42:03.058Z,99482.50
2023-04-03T09:44:32.174Z,99459.06
2023-04-03T09:46:59.651Z,99414.16
2023-04-03T09:49:27.185Z,99367.19
2023-04-03T09:51:54.807Z,99330.78
2023-04-03T09:54:27.329Z,99301.19
2023-04-03T09:56:56.710Z,99239.13
2023-04-03T09:59:24.146Z,99185.22
2023-04-03T10:02:02.974Z,99162.31
2023-04-03T10:04:41.634Z,99138.44
2023-04-03T10:07:27.764Z,99108.41
2023-04-03T10:09:58.720Z,99081.03
2023-04-03T10:12:25.869Z,99069.31
2023-04-03T10:14:56.911Z,99067.91
2023-04-03T10:17:27.106Z,99055.31
2023-04-03T10:19:57.578Z,99017.22
2023-04-03T10:22:27.561Z,98999.84
2023-04-03T10:25:04.154Z,98945.91
2023-04-03T10:27:57.425Z,98985.47
2023-04-03T10:30:43.200Z,98865.34
2023-04-03T10:33:11.267Z,98716.16
2023-04-03T10:35:54.700Z,98651.34
2023-04-03T10:38:32.168Z,98618.22
2023-04-03T10:40:59.263Z,98600.69
2023-04-03T10:43:34.260Z,98471.50
2023-04-03T10:46:04.686Z,98464.09
2023-04-03T10:48:31.749Z,98404.16
2023-04-03T10:51:08.242Z,98390.25
2023-04-03T10:53:54.710Z,98305.84
2023-04-03T10:56:37.205Z,98303.53
2023-04-03T10:59:23.866Z,98278.66
2023-04-03T11:01:54.369Z,98246.75
2023-04-03T11:04:23.954Z,98232.31
2023-04-03T11:07:08.946Z,98173.34
2023-04-03T11:09:40.571Z,98100.78
2023-04-03T11:12:13.687Z,98028.09
2023-04-03T11:14:41.131Z,97982.09
2023-04-03T11:17:31.649Z,97962.69
2023-04-03T11:20:09.956Z,97934.38
2023-04-03T11:22:39.990Z,97864.53
2023-04-03T11:25:11.329Z,97931.06
2023-04-03T11:27:44.664Z,97918.91
2023-04-03T11:30:19.579Z,97860.72
2023-04-03T11:32:49.456Z,97745.16
2023-04-03T11:35:18.054Z,97687.78
2023-04-03T11:37:52.831Z,97592.63
2023-04-03T11:40:26.362Z,97591.59
2023-04-03T11:43:04.307Z,97415.78
2023-04-03T11:45:38.151Z,97334.22
2023-04-03T11:48:25.234Z,97314.59
2023-04-03T11:50:52.987Z,97354.41
2023-04-03T11:53:28.748Z,97274.50
2023-04-03T11:56:00.879Z,97201.09
2023-04-03T11:58:34.985Z,97138.69
2023-04-03T12:01:12.268Z,97072.56
2023-04-03T12:03:43.439Z,97014.00
2023-04-03T12:06:17.813Z,96952.81
2023-04-03T12:08:46.684Z,96916.16
2023-04-03T12:11:14.007Z,96912.91
2023-04-03T12:13:50.422Z,96918.25
2023-04-03T12:16:22.308Z,96871.97
2023-04-03T12:18:52.586Z,96875.88
2023-04-03T12:21:22.450Z,96856.84
2023-04-03T12:23:58.438Z,96835.13
2023-04-03T12:26:35.529Z,96793.28
2023-04-03T12:29:18.874Z,96725.72
2023-04-03T12:32:09.338Z,96741.28
2023-04-03T12:34:55.224Z,96615.81
2023-04-03T12:37:40.891Z,96596.97
2023-04-03T12:40:11.599Z,96596.59
2023-04-03T12:42:41.431Z,96524.00
2023-04-03T12:45:21.807Z,96511.66
2023-04-03T12:47:53.374Z,96568.06
2023-04-03T12:50:24.854Z,96548.16
2023-04-03T12:53:21.400Z,96436.88
2023-04-03T12:55:48.610Z,96430.09
2023-04-03T12:58:23.138Z,96369.59
2023-04-03T13:01:00.049Z,96319.34
2023-04-03T13:03:28.271Z,96278.88
2023-04-03T13:05:58.271Z,96260.00
2023-04-03T13:08:25.711Z,96217.00
2023-04-03T13:11:02.608Z,96224.78
2023-04-03T13:13:29.901Z,96175.75
2023-04-03T13:15:57.173Z,96174.97
2023-04-03T13:18:34.858Z,96151.00
2023-04-03T13:21:31.181Z,96086.81
2023-04-03T13:24:14.078Z,96069.41
2023-04-03T13:26:43.164Z,96095.50
2023-04-03T13:29:28.154Z,96092.72
2023-04-03T13:31:59.068Z,96092.25
2023-04-03T13:34:28.724Z,96094.59
2023-04-03T13:36:56.950Z,96065.22
2023-04-03T13:39:27.005Z,96040.31
2023-04-03T13:41:55.414Z,96045.13
2023-04-03T13:44:22.476Z,96080.38
2023-04-03T13:47:00.523Z,96049.06
2023-04-03T13:49:36.505Z,96038.00
2023-04-03T13:52:23.864Z,96037.53
2023-04-03T13:54:56.127Z,96016.69
2023-04-03T13:57:23.195Z,95978.25
2023-04-03T13:59:51.081Z,95958.31
2023-04-03T14:02:20.246Z,95937.75
2023-04-03T14:04:49.507Z,95897.38
2023-04-03T14:07:17.847Z,95894.44
2023-04-03T14:09:44.964Z,95914.63
2023-04-03T14:12:32.585Z,95900.56
2023-04-03T14:15:04.511Z,95898.94
2023-04-03T14:17:32.136Z,95886.91
2023-04-03T14:19:59.676Z,95854.50
2023-04-03T14:22:29.303Z,95825.81
2023-04-03T14:24:57.168Z,95816.09
2023-04-03T14:27:26.089Z,95799.34
2023-04-03T14:29:54.229Z,95789.06
2023-04-03T14:32:23.061Z,95778.44
2023-04-03T14:34:51.970Z,95759.72
2023-04-03T14:37:21.182Z,95749.84
2023-04-03T14:39:48.243Z,95738.91
2023-04-03T14:42:17.249Z,95730.56
2023-04-03T14:44:44.330Z,95740.25
2023-04-03T14:47:29.866Z,95725.38
2023-04-03T14:49:59.394Z,95716.56
2023-04-03T14:52:29.016Z,95714.84
2023-04-03T14:54:56.358Z,95735.75
2023-04-03T14:57:25.009Z,95741.53
2023-04-03T14:59:52.179Z,95748.25
2023-04-03T15:02:25.467Z,95728.25
2023-04-03T15:04:53.725Z,95717.16
2023-04-03T15:07:21.141Z,95741.09
2023-04-03T15:09:48.434Z,95751.59
2023-04-03T15:12:15.864Z,95758.19
2023-04-03T15:14:51.804Z,95759.31
2023-04-03T15:17:22.429Z,95775.75
2023-04-03T15:19:49.582Z,95771.03
2023-04-03T15:22:17.648Z,95781.44
2023-04-03T15:24:44.832Z,95796.34
2023-04-03T15:27:13.566Z,95798.53
2023-04-03T15:29:42.263Z,95812.84
2023-04-03T15:32:10.085Z,95819.91
2023-04-03T15:34:37.984Z,95836.59
2023-04-03T15:37:05.277Z,95840.81
2023-04-03T15:39:32.431Z,95845.13
2023-04-03T15:42:06.780Z,95842.63
2023-04-03T15:44:36.651Z,95856.75
2023-04-03T15:47:03.864Z,95861.13
2023-04-03T15:49:31.783Z,95863.56
2023-04-03T15:51:58.876Z,95869.22
2023-04-03T15:54:26.435Z,95867.00
2023-04-03T15:56:53.983Z,95876.28
2023-04-03T15:59:21.285Z,95890.53
2023-04-03T16:01:48.957Z,95898.44
2023-04-03T16:04:17.008Z,95887.84
2023-04-03T16:06:44.598Z,95894.84
2023-04-03T16:09:11.795Z,95900.78
2023-04-03T16:11:40.897Z,95909.44
2023-04-03T16:14:08.563Z,95909.88
2023-04-03T16:16:36.105Z,95918.88
2023-04-03T16:19:03.345Z,95921.91
2023-04-03T16:21:30.628Z,95922.34
2023-04-03T16:23:59.195Z,95924.78
2023-04-03T16:26:27.812Z,95931.59
2023-04-03T16:28:55.451Z,95951.28
2023-04-03T16:31:23.549Z,95951.72
2023-04-03T16:33:50.942Z,95953.28
2023-04-03T16:36:18.170Z,95954.09
2023-04-03T16:38:45.369Z,95966.63
2023-04-03T16:41:12.444Z,95962.94
2023-04-03T16:43:39.491Z,95960.72
2023-04-03T16:46:06.594Z,95972.03
2023-04-03T16:48:33.713Z,95976.94
2023-04-03T16:51:00.873Z,95979.25
2023-04-03T16:53:28.405Z,95984.69
2023-04-03T16:55:55.746Z,95978.72
2023-04-03T16:58:23.962Z,95985.47
2023-04-03T17:00:51.896Z,95983.88
2023-04-03T17:03:18.982Z,95997.00
2023-04-03T17:05:49.095Z,95996.78
2023-04-03T17:08:17.555Z,96023.00
2023-04-03T17:10:44.621Z,96025.28
2023-04-03T17:13:11.692Z,96031.88
2023-04-03T17:15:39.120Z,96039.84
2023-04-03T17:18:07.685Z,96041.31
2023-04-03T17:20:37.107Z,96048.34
2023-04-03T17:23:04.722Z,96042.88
2023-04-03T17:25:31.964Z,96047.97
2023-04-03T17:27:59.087Z,96046.75
2023-04-03T17:30:26.210Z,96048.44
2023-04-03T17:32:53.318Z,96047.25
2023-04-03T17:35:20.405Z,96057.47
2023-04-03T17:37:48.982Z,96058.72
2023-04-03T17:40:17.904Z,96057.34
2023-04-03T17:42:45.084Z,96057.34
2023-04-03T17:45:12.263Z,96068.38
2023-04-03T17:47:39.455Z,96074.31
2023-04-03T17:50:06.776Z,96064.13
2023-04-03T17:52:33.934Z,96063.16
2023-04-03T17:55:01.247Z,96061.50
2023-04-03T17:57:28.331Z,96065.84
2023-04-03T17:59:55.392Z,96070.34
2023-04-03T18:02:22.652Z,96073.22
2023-04-03T18:04:53.564Z,96080.19
2023-04-03T18:07:20.804Z,96082.25
2023-04-03T18:09:49.246Z,96083.47
2023-04-03T18:12:18.750Z,96081.03
2023-04-03T18:14:46.144Z,96083.72
2023-04-03T18:17:13.316Z,96083.31
2023-04-03T18:19:40.401Z,96085.59
2023-04-03T18:22:16.235Z,96088.44
2023-04-03T18:24:44.106Z,96107.56
2023-04-03T18:27:12.964Z,96104.75
2023-04-03T18:29:41.036Z,96101.50
2023-04-03T18:32:10.204Z,96105.16
2023-04-03T18:34:38.188Z,96096.25
2023-04-03T18:37:06.037Z,96099.91
2023-04-03T18:39:33.194Z,96103.16
2023-04-03T18:42:04.173Z,96121.91
2023-04-03T18:44:32.006Z,96107.44
2023-04-03T18:46:59.919Z,96115.81
2023-04-03T18:49:30.544Z,96120.50
2023-04-03T18:51:57.697Z,96118.84
2023-04-03T18:54:24.738Z,96117.47
2023-04-03T18:56:51.839Z,96121.94
2023-04-03T18:59:18.937Z,96109.91
2023-04-03T19:01:46.048Z,96125.19
2023-04-03T19:04:13.500Z,96119.06
2023-04-03T19:06:40.608Z,96121.53
2023-04-03T19:09:08.064Z,96121.13
2023-04-03T19:11:35.394Z,96120.72
2023-04-03T19:14:14.353Z,96126.81
2023-04-03T19:16:42.882Z,96149.59
2023-04-03T19:19:09.955Z,96149.19
2023-04-03T19:21:41.117Z,96158.13
2023-04-03T19:24:09.339Z,96169.13
2023-04-03T19:26:38.767Z,96174.81
2023-04-03T19:29:05.944Z,96186.63
2023-04-03T19:31:33.969Z,96173.78
2023-04-03T19:34:02.622Z,96181.53
2023-04-03T19:36:30.480Z,96187.34
2023-04-03T19:38:57.704Z,96187.41
2023-04-03T19:41:27.306Z,96184.97
2023-04-03T19:43:55.744Z,96185.38
2023-04-03T19:46:23.889Z,96199.22
2023-04-03T19:48:51.275Z,96193.91
2023-04-03T19:51:18.553Z,96193.47
2023-04-03T19:53:47.305Z,96193.47
2023-04-03T19:56:16.567Z,96206.06
2023-04-03T19:58:43.986Z,96188.59
2023-04-03T20:01:11.445Z,96194.50
2023-04-03T20:03:39.688Z,96201.59
2023-04-03T20:06:06.734Z,96204.84
2023-04-03T20:08:34.537Z,96198.56
2023-04-03T20:11:01.697Z,96207.66
2023-04-03T20:13:31.189Z,96206.03
2023-04-03T20:16:01.682Z,96214.13
2023-04-03T20:18:28.959Z,96211.09
2023-04-03T20:20:57.710Z,96215.75
2023-04-03T20:23:25.215Z,96220.22
2023-04-03T20:26:05.768Z,96225.66
2023-04-03T20:28:36.372Z,96231.94
2023-04-03T20:31:03.837Z,96225.63
2023-04-03T20:33:31.154Z,96225.59
2023-04-03T20:35:58.495Z,96220.69
2023-04-03T20:38:25.743Z,96227.03
2023-04-03T20:40:52.872Z,96225.97
2023-04-03T20:43:21.761Z,96226.16
2023-04-03T20:45:49.825Z,96222.69
2023-04-03T20:48:18.103Z,96231.00
2023-04-03T20:50:46.500Z,96225.69
2023-04-03T20:53:15.019Z,96229.97
2023-04-03T20:55:42.530Z,96232.63
2023-04-03T20:58:09.858Z,96238.13
2023-04-03T21:00:38.009Z,96240.75
2023-04-03T21:03:06.098Z,96238.75
2023-04-03T21:05:35.069Z,96230.09
2023-04-03T21:08:20.855Z,96241.09
2023-04-03T21:11:06.864Z,96240.13
2023-04-03T21:13:53.665Z,96233.22
2023-04-03T21:16:21.653Z,96236.06
2023-04-03T21:18:53.614Z,96237.44
2023-04-03T21:21:23.310Z,96240.91
2023-04-03T21:23:51.047Z,96247.84
2023-04-03T21:26:18.253Z,96243.16
2023-04-03T21:28:45.656Z,96240.63
2023-04-03T21:31:12.852Z,96245.25
2023-04-03T21:33:40.056Z,96248.75
2023-04-03T21:36:07.916Z,96251.59
2023-04-03T21:38:38.152Z,96245.41
2023-04-03T21:41:05.213Z,96254.56
2023-04-03T21:43:32.329Z,96264.56
2023-04-03T21:45:59.920Z,96267.31
2023-04-03T21:48:30.840Z,96265.22
2023-04-03T21:51:07.070Z,96270.09
2023-04-03T21:53:34.497Z,96270.72
2023-04-03T21:56:02.680Z,96278.69
2023-04-03T21:58:35.799Z,96282.16
2023-04-03T22:01:09.957Z,96287.66
2023-04-03T22:03:37.684Z,96281.09
2023-04-03T22:06:04.970Z,96278.31
2023-04-03T22:08:32.031Z,96299.28
2023-04-03T22:11:03.401Z,96307.84
2023-04-03T22:13:30.847Z,96308.38
2023-04-03T22:15:59.489Z,96313.31
2023-04-03T22:18:27.250Z,96317.97
2023-04-03T22:20:55.038Z,96321.41
2023-04-03T22:23:22.526Z,96323.25
2023-04-03T22:26:01.795Z,96319.09
2023-04-03T22:28:29.661Z,96323.94
2023-04-03T22:30:57.160Z,96328.97
2023-04-03T22:33:24.400Z,96337.00
2023-04-03T22:35:51.671Z,96348.31
2023-04-03T22:38:18.795Z,96334.75
2023-04-03T22:40:46.077Z,96343.63
2023-04-03T22:43:13.394Z,96326.78
2023-04-03T22:45:47.186Z,96328.84
2023-04-03T22:48:15.036Z,96336.63
2023-04-03T22:50:42.461Z,96337.00
2023-04-03T22:53:09.990Z,96334.88
2023-04-03T22:55:38.136Z,96339.00
2023-04-03T22:58:05.700Z,96351.72
2023-04-03T23:00:33.002Z,96345.56
2023-04-03T23:03:01.372Z,96353.06
2023-04-03T23:05:28.781Z,96351.59
2023-04-03T23:07:56.072Z,96355.72
2023-04-03T23:10:23.214Z,96359.75
2023-04-03T23:12:50.305Z,96367.47
2023-04-03T23:15:19.531Z,96356.88
2023-04-03T23:17:48.417Z,96360.75
2023-04-03T23:20:15.578Z,96351.06
2023-04-03T23:22:44.018Z,96355.09
2023-04-03T23:25:11.383Z,96352.06
2023-04-03T23:27:38.496Z,96337.25
2023-04-03T23:30:05.970Z,96331.78
2023-04-03T23:32:33.025Z,96326.84
2023-04-03T23:35:00.118Z,96330.22
2023-04-03T23:37:27.356Z,96312.13
2023-04-03T23:39:54.492Z,96314.47
2023-04-03T23:42:21.563Z,96304.34
2023-04-03T23:44:48.567Z,96291.03
2023-04-03T23:47:15.849Z,96266.78
2023-04-03T23:49:42.869Z,96265.41
2023-04-03T23:52:09.922Z,96248.72
2023-04-03T23:54:36.942Z,96248.81
2023-04-03T23:57:04.082Z,96236.13
2023-04-03T23:59:31.239Z,96234.19
